EmailTwitter


Observations de surface / États-Unis / KJFK (74486)

Régions: Québec | Canada | États-Unis | Europe | France | UK | Elsewhere
Station
Affichage
Infos & localisation pour KJFK (74486) | Aide pour décoder les METARs

Observations prises le 2017-04-27 à 10H51 UTC à NEW YORK/JF KENN, NY (KJFK)

Etat du ciel: couvert.

Obstacle(s) à la visibilité: brume.

Température: 14.0 Celsius

Point de rosée: 14.0 Celsius

Humidité relative: 100%

Vents: Sud à 7 km/h ou 4 noeuds.

Pression au niveau moyen de la mer: 101.25 kilopascals.

Calage altimétrique: 101.25 kilopascals ou 29.90 pouces de mercure.

Visibilité horizontale: 1.50 milles terrestres ou 2.40 kilomètres.

Hauteur du plafond: 610 mètres ( 2000 pieds ).

Observation METAR:

KJFK 271051Z 17004KT 1 1/2SM BR SCT004 SCT014 OVC020 14/14 A2990 RMK AO2 SLP125

T01440144=